LZT6R LTBA-LBSF
Flight info
| Callsign | LZT6R |
|---|---|
| Flight time | 1h 31m |
| Altitude | 23000 |
| Route | LTBA/23 VADE1B VADEN T227 DEDIN L614 BLO DCT SOF |
| Aircraft | MU2/L-V/N |
Departure
| Time | 2026-05-04 18:33 |
|---|---|
| Airport | İstanbul Atatürk Airport (LTBA) |
Arrival
| Time | 2026-05-04 20:05 |
|---|---|
| Airport | Sofia Airport (LBSF) |
| Time | Latitude | Longitude | Altitude | Speed | Heading |
|---|---|---|---|---|---|
| 2026-05-04 18:18 | 40.99491 | 28.80328 | 179 ft | 0 kts | 88° |
| 2026-05-04 18:20 | 40.99492 | 28.80332 | 178 ft | 1 kts | 62° |
| 2026-05-04 18:21 | 40.99500 | 28.80335 | 178 ft | 2 kts | 340° |
| 2026-05-04 18:21 | 40.99517 | 28.80319 | 179 ft | 12 kts | 323° |
| 2026-05-04 18:21 | 40.99588 | 28.80289 | 182 ft | 0 kts | 6° |
| 2026-05-04 18:21 | 40.99595 | 28.80291 | 182 ft | 3 kts | 5° |
| 2026-05-04 18:22 | 40.99624 | 28.80313 | 180 ft | 0 kts | 50° |
| 2026-05-04 18:22 | 40.99627 | 28.80349 | 177 ft | 9 kts | 94° |
| 2026-05-04 18:22 | 40.99628 | 28.80481 | 167 ft | 18 kts | 87° |
| 2026-05-04 18:22 | 40.99629 | 28.80675 | 155 ft | 22 kts | 89° |
| 2026-05-04 18:23 | 40.99638 | 28.80907 | 133 ft | 27 kts | 89° |
| 2026-05-04 18:23 | 40.99536 | 28.81090 | 123 ft | 25 kts | 147° |
| 2026-05-04 18:23 | 40.99391 | 28.81150 | 127 ft | 19 kts | 176° |
| 2026-05-04 18:23 | 40.99271 | 28.81161 | 133 ft | 15 kts | 176° |
| 2026-05-04 18:24 | 40.99169 | 28.81169 | 138 ft | 13 kts | 178° |
| 2026-05-04 18:24 | 40.99099 | 28.81221 | 139 ft | 13 kts | 92° |
| 2026-05-04 18:24 | 40.99094 | 28.81362 | 134 ft | 17 kts | 143° |
| 2026-05-04 18:24 | 40.98984 | 28.81372 | 138 ft | 14 kts | 176° |
| 2026-05-04 18:25 | 40.98881 | 28.81377 | 140 ft | 14 kts | 175° |
| 2026-05-04 18:25 | 40.98775 | 28.81383 | 141 ft | 15 kts | 180° |
| 2026-05-04 18:25 | 40.98655 | 28.81387 | 138 ft | 18 kts | 178° |
| 2026-05-04 18:25 | 40.98527 | 28.81390 | 136 ft | 19 kts | 179° |
| 2026-05-04 18:26 | 40.98391 | 28.81396 | 133 ft | 19 kts | 178° |
| 2026-05-04 18:26 | 40.98251 | 28.81399 | 129 ft | 20 kts | 179° |
| 2026-05-04 18:26 | 40.98102 | 28.81408 | 123 ft | 21 kts | 179° |
| 2026-05-04 18:26 | 40.97950 | 28.81409 | 117 ft | 22 kts | 178° |
| 2026-05-04 18:27 | 40.97797 | 28.81401 | 111 ft | 22 kts | 188° |
| 2026-05-04 18:27 | 40.97642 | 28.81389 | 105 ft | 22 kts | 175° |
| 2026-05-04 18:27 | 40.97514 | 28.81471 | 100 ft | 21 kts | 111° |
| 2026-05-04 18:27 | 40.97525 | 28.81645 | 103 ft | 17 kts | 91° |
| 2026-05-04 18:28 | 40.97534 | 28.81793 | 106 ft | 16 kts | 79° |
| 2026-05-04 18:28 | 40.97555 | 28.81944 | 109 ft | 18 kts | 80° |
| 2026-05-04 18:28 | 40.97581 | 28.82120 | 108 ft | 20 kts | 78° |
| 2026-05-04 18:28 | 40.97615 | 28.82313 | 105 ft | 22 kts | 76° |
| 2026-05-04 18:29 | 40.97654 | 28.82529 | 98 ft | 24 kts | 82° |
| 2026-05-04 18:29 | 40.97689 | 28.82753 | 92 ft | 25 kts | 74° |
| 2026-05-04 18:29 | 40.97727 | 28.82986 | 81 ft | 27 kts | 79° |
| 2026-05-04 18:29 | 40.97790 | 28.83221 | 69 ft | 27 kts | 59° |
| 2026-05-04 18:30 | 40.97885 | 28.83476 | 48 ft | 5 kts | 98° |
| 2026-05-04 18:30 | 40.97875 | 28.83507 | 47 ft | 0 kts | 116° |
| 2026-05-04 18:30 | 40.97875 | 28.83509 | 47 ft | 1 kts | 116° |
| 2026-05-04 18:31 | 40.97840 | 28.83555 | 46 ft | 11 kts | 153° |
| 2026-05-04 18:31 | 40.97765 | 28.83583 | 46 ft | 9 kts | 220° |
| 2026-05-04 18:31 | 40.97760 | 28.83576 | 47 ft | 0 kts | 238° |
| 2026-05-04 18:32 | 40.97648 | 28.83325 | 71 ft | 79 kts | 240° |
| 2026-05-04 18:32 | 40.97263 | 28.82485 | 216 ft | 115 kts | 243° |
| 2026-05-04 18:32 | 40.96896 | 28.81582 | 549 ft | 122 kts | 249° |
| 2026-05-04 18:33 | 40.96463 | 28.80504 | 581 ft | 151 kts | 244° |
| 2026-05-04 18:33 | 40.96046 | 28.79285 | 1239 ft | 143 kts | 254° |
| 2026-05-04 18:33 | 40.95511 | 28.78048 | 1628 ft | 154 kts | 257° |
| 2026-05-04 18:33 | 40.95098 | 28.76706 | 2014 ft | 172 kts | 247° |
| 2026-05-04 18:34 | 40.94555 | 28.75358 | 2625 ft | 172 kts | 250° |
| 2026-05-04 18:34 | 40.93972 | 28.73943 | 3318 ft | 175 kts | 246° |
| 2026-05-04 18:34 | 40.93341 | 28.72534 | 3792 ft | 190 kts | 247° |
| 2026-05-04 18:34 | 40.92629 | 28.70989 | 4196 ft | 202 kts | 246° |
| 2026-05-04 18:35 | 40.91801 | 28.69409 | 4434 ft | 225 kts | 234° |
| 2026-05-04 18:35 | 40.90779 | 28.67896 | 5135 ft | 209 kts | 238° |
| 2026-05-04 18:35 | 40.89903 | 28.66267 | 5242 ft | 226 kts | 251° |
| 2026-05-04 18:35 | 40.89243 | 28.64465 | 5894 ft | 218 kts | 255° |
| 2026-05-04 18:36 | 40.88586 | 28.62572 | 6083 ft | 238 kts | 256° |
| 2026-05-04 18:36 | 40.87924 | 28.60549 | 6451 ft | 240 kts | 255° |
| 2026-05-04 18:36 | 40.87223 | 28.58578 | 6969 ft | 240 kts | 255° |
| 2026-05-04 18:36 | 40.86514 | 28.56564 | 7390 ft | 240 kts | 256° |
| 2026-05-04 18:37 | 40.85856 | 28.54595 | 8010 ft | 234 kts | 257° |
| 2026-05-04 18:37 | 40.85115 | 28.52607 | 8243 ft | 246 kts | 255° |
| 2026-05-04 18:37 | 40.84487 | 28.50545 | 8733 ft | 240 kts | 260° |
| 2026-05-04 18:37 | 40.84245 | 28.48493 | 9061 ft | 224 kts | 289° |
| 2026-05-04 18:38 | 40.85075 | 28.46800 | 8683 ft | 227 kts | 324° |
| 2026-05-04 18:38 | 40.86157 | 28.45523 | 9534 ft | 199 kts | 327° |
| 2026-05-04 18:38 | 40.87253 | 28.44336 | 9507 ft | 215 kts | 331° |
| 2026-05-04 18:38 | 40.88510 | 28.43133 | 9322 ft | 229 kts | 329° |
| 2026-05-04 18:39 | 40.89659 | 28.41788 | 9874 ft | 216 kts | 323° |
| 2026-05-04 18:39 | 40.90691 | 28.40346 | 10148 ft | 217 kts | 323° |
| 2026-05-04 18:39 | 40.91784 | 28.38869 | 10179 ft | 230 kts | 322° |
| 2026-05-04 18:39 | 40.92841 | 28.37360 | 10665 ft | 220 kts | 322° |
| 2026-05-04 18:40 | 40.93910 | 28.35912 | 11032 ft | 220 kts | 322° |
| 2026-05-04 18:40 | 40.94961 | 28.34423 | 11222 ft | 225 kts | 322° |
| 2026-05-04 18:40 | 40.96036 | 28.32944 | 11708 ft | 218 kts | 322° |
| 2026-05-04 18:40 | 40.97027 | 28.31425 | 11954 ft | 226 kts | 316° |
| 2026-05-04 18:41 | 40.97989 | 28.29717 | 12085 ft | 233 kts | 316° |
| 2026-05-04 18:41 | 40.99050 | 28.28164 | 12440 ft | 222 kts | 327° |
| 2026-05-04 18:41 | 41.00382 | 28.27162 | 12552 ft | 222 kts | 341° |
| 2026-05-04 18:41 | 41.01707 | 28.26050 | 12747 ft | 233 kts | 324° |
| 2026-05-04 18:42 | 41.02570 | 28.24180 | 13005 ft | 245 kts | 303° |
| 2026-05-04 18:42 | 41.03295 | 28.22182 | 13358 ft | 234 kts | 312° |
| 2026-05-04 18:42 | 41.04292 | 28.20561 | 13698 ft | 227 kts | 319° |
| 2026-05-04 18:42 | 41.05313 | 28.18971 | 14058 ft | 224 kts | 320° |
| 2026-05-04 18:43 | 41.06328 | 28.17413 | 14404 ft | 223 kts | 320° |
| 2026-05-04 18:43 | 41.07352 | 28.15926 | 14732 ft | 218 kts | 326° |
| 2026-05-04 18:43 | 41.08453 | 28.14542 | 15061 ft | 217 kts | 324° |
| 2026-05-04 18:43 | 41.09517 | 28.13114 | 15376 ft | 217 kts | 323° |
| 2026-05-04 18:44 | 41.10554 | 28.11680 | 15687 ft | 217 kts | 322° |
| 2026-05-04 18:44 | 41.11253 | 28.10704 | 15900 ft | 217 kts | 323° |
| 2026-05-04 18:44 | 41.12629 | 28.08783 | 16302 ft | 217 kts | 322° |
| 2026-05-04 18:44 | 41.13669 | 28.07326 | 16608 ft | 217 kts | 322° |
| 2026-05-04 18:45 | 41.14700 | 28.05884 | 16904 ft | 217 kts | 322° |
| 2026-05-04 18:45 | 41.15737 | 28.04432 | 17200 ft | 217 kts | 322° |
| 2026-05-04 18:45 | 41.16769 | 28.02986 | 17478 ft | 217 kts | 322° |
| 2026-05-04 18:45 | 41.17799 | 28.01543 | 17759 ft | 217 kts | 322° |
| 2026-05-04 18:46 | 41.18840 | 28.00083 | 18036 ft | 217 kts | 322° |
| 2026-05-04 18:46 | 41.19874 | 27.98632 | 18309 ft | 217 kts | 322° |
| 2026-05-04 18:46 | 41.20911 | 27.97177 | 18591 ft | 217 kts | 322° |
| 2026-05-04 18:46 | 41.21950 | 27.95718 | 18874 ft | 217 kts | 322° |
| 2026-05-04 18:47 | 41.22978 | 27.94274 | 19148 ft | 218 kts | 323° |
| 2026-05-04 18:47 | 41.24024 | 27.92802 | 19427 ft | 217 kts | 323° |
| 2026-05-04 18:47 | 41.25060 | 27.91345 | 19698 ft | 217 kts | 323° |
| 2026-05-04 18:47 | 41.26102 | 27.89880 | 19954 ft | 217 kts | 323° |
| 2026-05-04 18:48 | 41.27130 | 27.88432 | 20206 ft | 218 kts | 324° |
| 2026-05-04 18:48 | 41.28169 | 27.86987 | 20453 ft | 214 kts | 329° |
| 2026-05-04 18:48 | 41.29443 | 27.86142 | 20684 ft | 198 kts | 352° |
| 2026-05-04 18:48 | 41.30774 | 27.85710 | 20930 ft | 197 kts | 354° |
| 2026-05-04 18:49 | 41.32091 | 27.85269 | 21173 ft | 197 kts | 353° |
| 2026-05-04 18:49 | 41.33416 | 27.84807 | 21419 ft | 196 kts | 354° |
| 2026-05-04 18:49 | 41.34726 | 27.84344 | 21658 ft | 195 kts | 353° |
| 2026-05-04 18:49 | 41.36048 | 27.83877 | 21900 ft | 195 kts | 354° |
| 2026-05-04 18:50 | 41.37354 | 27.83415 | 22129 ft | 194 kts | 354° |
| 2026-05-04 18:50 | 41.38646 | 27.82957 | 22354 ft | 193 kts | 353° |
| 2026-05-04 18:50 | 41.39946 | 27.82496 | 22574 ft | 193 kts | 354° |
| 2026-05-04 18:50 | 41.41251 | 27.82034 | 22794 ft | 193 kts | 355° |
| 2026-05-04 18:51 | 41.42547 | 27.81574 | 22972 ft | 195 kts | 354° |
| 2026-05-04 18:51 | 41.43878 | 27.81105 | 23002 ft | 204 kts | 354° |
| 2026-05-04 18:51 | 41.45262 | 27.80511 | 22998 ft | 219 kts | 343° |
| 2026-05-04 18:51 | 41.46567 | 27.79314 | 23013 ft | 232 kts | 334° |
| 2026-05-04 18:52 | 41.47883 | 27.78002 | 23003 ft | 237 kts | 335° |
| 2026-05-04 18:52 | 41.49213 | 27.76723 | 23003 ft | 240 kts | 335° |
| 2026-05-04 18:52 | 41.50580 | 27.75420 | 23001 ft | 242 kts | 335° |
| 2026-05-04 18:52 | 41.51949 | 27.74117 | 22996 ft | 244 kts | 335° |
| 2026-05-04 18:53 | 41.53342 | 27.72791 | 22991 ft | 246 kts | 335° |
| 2026-05-04 18:53 | 41.54736 | 27.71464 | 22992 ft | 247 kts | 335° |
| 2026-05-04 18:53 | 41.56143 | 27.70124 | 22989 ft | 248 kts | 334° |
| 2026-05-04 18:53 | 41.57548 | 27.68784 | 22988 ft | 248 kts | 335° |
| 2026-05-04 18:54 | 41.58943 | 27.67453 | 22984 ft | 249 kts | 335° |
| 2026-05-04 18:54 | 41.60357 | 27.66104 | 22987 ft | 249 kts | 335° |
| 2026-05-04 18:54 | 41.61774 | 27.64751 | 22988 ft | 249 kts | 335° |
| 2026-05-04 18:54 | 41.63189 | 27.63400 | 22990 ft | 250 kts | 334° |
| 2026-05-04 18:55 | 41.64581 | 27.62069 | 22986 ft | 250 kts | 334° |
| 2026-05-04 18:55 | 41.67430 | 27.59343 | 22986 ft | 251 kts | 334° |
| 2026-05-04 18:55 | 41.68838 | 27.57996 | 22985 ft | 251 kts | 334° |
| 2026-05-04 18:56 | 41.70249 | 27.56644 | 22995 ft | 251 kts | 334° |
| 2026-05-04 18:56 | 41.71672 | 27.55279 | 23031 ft | 250 kts | 335° |
| 2026-05-04 18:56 | 41.73083 | 27.53927 | 23033 ft | 250 kts | 334° |
| 2026-05-04 18:56 | 41.74503 | 27.52565 | 23031 ft | 251 kts | 334° |
| 2026-05-04 18:57 | 41.75911 | 27.51213 | 23032 ft | 251 kts | 334° |
| 2026-05-04 18:57 | 41.77324 | 27.49856 | 23027 ft | 252 kts | 334° |
| 2026-05-04 18:57 | 41.78752 | 27.48484 | 23027 ft | 252 kts | 334° |
| 2026-05-04 18:57 | 41.80171 | 27.47119 | 23026 ft | 252 kts | 334° |
| 2026-05-04 18:58 | 41.81610 | 27.45735 | 23031 ft | 252 kts | 334° |
| 2026-05-04 18:58 | 41.83019 | 27.44378 | 23030 ft | 253 kts | 334° |
| 2026-05-04 18:58 | 41.84441 | 27.43009 | 23033 ft | 252 kts | 334° |
| 2026-05-04 18:58 | 41.85878 | 27.41623 | 23028 ft | 253 kts | 334° |
| 2026-05-04 18:59 | 41.87269 | 27.40181 | 23019 ft | 260 kts | 324° |
| 2026-05-04 18:59 | 41.88256 | 27.38062 | 23039 ft | 278 kts | 304° |
| 2026-05-04 18:59 | 41.88939 | 27.35607 | 23030 ft | 283 kts | 299° |
| 2026-05-04 18:59 | 41.89551 | 27.33078 | 23021 ft | 284 kts | 297° |
| 2026-05-04 19:00 | 41.90134 | 27.30570 | 23023 ft | 284 kts | 297° |
| 2026-05-04 19:00 | 41.90723 | 27.28023 | 23023 ft | 284 kts | 297° |
| 2026-05-04 19:00 | 41.91300 | 27.25523 | 23027 ft | 284 kts | 297° |
| 2026-05-04 19:00 | 41.91890 | 27.22965 | 23029 ft | 284 kts | 296° |
| 2026-05-04 19:01 | 41.92471 | 27.20440 | 23028 ft | 285 kts | 296° |
| 2026-05-04 19:01 | 41.93056 | 27.17897 | 23032 ft | 285 kts | 297° |
| 2026-05-04 19:01 | 41.93637 | 27.15370 | 23031 ft | 285 kts | 296° |
| 2026-05-04 19:01 | 41.94215 | 27.12851 | 23030 ft | 285 kts | 296° |
| 2026-05-04 19:02 | 41.94800 | 27.10298 | 23034 ft | 285 kts | 296° |
| 2026-05-04 19:02 | 41.95382 | 27.07756 | 23033 ft | 285 kts | 296° |
| 2026-05-04 19:02 | 41.95970 | 27.05186 | 23032 ft | 285 kts | 296° |
| 2026-05-04 19:02 | 41.96546 | 27.02665 | 23039 ft | 285 kts | 296° |
| 2026-05-04 19:03 | 41.97127 | 27.00117 | 23043 ft | 285 kts | 296° |
| 2026-05-04 19:03 | 41.97707 | 26.97576 | 23033 ft | 285 kts | 296° |
| 2026-05-04 19:03 | 41.98287 | 26.95025 | 23037 ft | 285 kts | 296° |
| 2026-05-04 19:03 | 41.98864 | 26.92492 | 23029 ft | 285 kts | 296° |
| 2026-05-04 19:04 | 41.99447 | 26.89922 | 23020 ft | 285 kts | 297° |
| 2026-05-04 19:04 | 42.00024 | 26.87378 | 23020 ft | 284 kts | 298° |
| 2026-05-04 19:04 | 42.00598 | 26.84846 | 23011 ft | 284 kts | 298° |
| 2026-05-04 19:04 | 42.01180 | 26.82277 | 23007 ft | 284 kts | 297° |
| 2026-05-04 19:05 | 42.01753 | 26.79740 | 23007 ft | 284 kts | 298° |
| 2026-05-04 19:05 | 42.02327 | 26.77201 | 23007 ft | 284 kts | 297° |
| 2026-05-04 19:05 | 42.02898 | 26.74671 | 23005 ft | 284 kts | 298° |
| 2026-05-04 19:05 | 42.03468 | 26.72138 | 23014 ft | 283 kts | 298° |
| 2026-05-04 19:06 | 42.04043 | 26.69583 | 23021 ft | 283 kts | 298° |
| 2026-05-04 19:06 | 42.04606 | 26.67082 | 23033 ft | 282 kts | 298° |
| 2026-05-04 19:06 | 42.05176 | 26.64539 | 23044 ft | 282 kts | 298° |
| 2026-05-04 19:06 | 42.05741 | 26.62022 | 23047 ft | 282 kts | 298° |
| 2026-05-04 19:07 | 42.06304 | 26.59509 | 23055 ft | 282 kts | 298° |
| 2026-05-04 19:07 | 42.06866 | 26.56998 | 23053 ft | 282 kts | 298° |
| 2026-05-04 19:07 | 42.07434 | 26.54459 | 23052 ft | 283 kts | 298° |
| 2026-05-04 19:07 | 42.07997 | 26.51933 | 23049 ft | 283 kts | 298° |
| 2026-05-04 19:08 | 42.08568 | 26.49374 | 23057 ft | 283 kts | 298° |
| 2026-05-04 19:08 | 42.09131 | 26.46848 | 23057 ft | 284 kts | 298° |
| 2026-05-04 19:08 | 42.09696 | 26.44306 | 23052 ft | 284 kts | 298° |
| 2026-05-04 19:08 | 42.10258 | 26.41775 | 23065 ft | 284 kts | 298° |
| 2026-05-04 19:09 | 42.10825 | 26.39225 | 23062 ft | 285 kts | 297° |
| 2026-05-04 19:09 | 42.11389 | 26.36677 | 23061 ft | 285 kts | 297° |
| 2026-05-04 19:09 | 42.11955 | 26.34123 | 23059 ft | 286 kts | 297° |
| 2026-05-04 19:09 | 42.12523 | 26.31554 | 23057 ft | 286 kts | 297° |
| 2026-05-04 19:10 | 42.13088 | 26.28997 | 23059 ft | 287 kts | 297° |
| 2026-05-04 19:10 | 42.13471 | 26.27262 | 23053 ft | 287 kts | 297° |
| 2026-05-04 19:10 | 42.14225 | 26.23839 | 23055 ft | 288 kts | 297° |
| 2026-05-04 19:10 | 42.14796 | 26.21247 | 23051 ft | 288 kts | 296° |
| 2026-05-04 19:11 | 42.15360 | 26.18682 | 23061 ft | 288 kts | 296° |
| 2026-05-04 19:11 | 42.15930 | 26.16085 | 23055 ft | 288 kts | 296° |
| 2026-05-04 19:11 | 42.16495 | 26.13510 | 23056 ft | 288 kts | 296° |
| 2026-05-04 19:11 | 42.17061 | 26.10925 | 23055 ft | 288 kts | 296° |
| 2026-05-04 19:12 | 42.17626 | 26.08336 | 23058 ft | 288 kts | 296° |
| 2026-05-04 19:12 | 42.18762 | 26.03162 | 23060 ft | 288 kts | 296° |
| 2026-05-04 19:12 | 42.19321 | 26.00596 | 23060 ft | 288 kts | 296° |
| 2026-05-04 19:13 | 42.19888 | 25.97996 | 23063 ft | 288 kts | 296° |
| 2026-05-04 19:13 | 42.20451 | 25.95404 | 23066 ft | 288 kts | 296° |
| 2026-05-04 19:13 | 42.21013 | 25.92818 | 23065 ft | 288 kts | 296° |
| 2026-05-04 19:13 | 42.21580 | 25.90205 | 23066 ft | 288 kts | 297° |
| 2026-05-04 19:14 | 42.22138 | 25.87627 | 23071 ft | 288 kts | 297° |
| 2026-05-04 19:14 | 42.22704 | 25.85012 | 23069 ft | 287 kts | 298° |
| 2026-05-04 19:14 | 42.23259 | 25.82442 | 23063 ft | 287 kts | 298° |
| 2026-05-04 19:14 | 42.23818 | 25.79856 | 23060 ft | 287 kts | 298° |
| 2026-05-04 19:15 | 42.24372 | 25.77286 | 23060 ft | 286 kts | 298° |
| 2026-05-04 19:15 | 42.24927 | 25.74708 | 23058 ft | 286 kts | 298° |
| 2026-05-04 19:15 | 42.25484 | 25.72120 | 23057 ft | 286 kts | 298° |
| 2026-05-04 19:15 | 42.26035 | 25.69557 | 23057 ft | 286 kts | 298° |
| 2026-05-04 19:16 | 42.26587 | 25.66982 | 23056 ft | 286 kts | 298° |
| 2026-05-04 19:16 | 42.27144 | 25.64387 | 23060 ft | 286 kts | 297° |
| 2026-05-04 19:16 | 42.27696 | 25.61808 | 23061 ft | 286 kts | 298° |
| 2026-05-04 19:16 | 42.28249 | 25.59220 | 23060 ft | 287 kts | 297° |
| 2026-05-04 19:17 | 42.28797 | 25.56655 | 23056 ft | 287 kts | 297° |
| 2026-05-04 19:17 | 42.29345 | 25.54082 | 23057 ft | 287 kts | 297° |
| 2026-05-04 19:17 | 42.29901 | 25.51474 | 23053 ft | 287 kts | 297° |
| 2026-05-04 19:17 | 42.30447 | 25.48905 | 23055 ft | 287 kts | 297° |
| 2026-05-04 19:18 | 42.30997 | 25.46320 | 23053 ft | 287 kts | 297° |
| 2026-05-04 19:18 | 42.31551 | 25.43708 | 23056 ft | 287 kts | 297° |
| 2026-05-04 19:18 | 42.32096 | 25.41138 | 23056 ft | 287 kts | 297° |
| 2026-05-04 19:18 | 42.32648 | 25.38530 | 23050 ft | 287 kts | 297° |
| 2026-05-04 19:19 | 42.33189 | 25.35971 | 23053 ft | 287 kts | 297° |
| 2026-05-04 19:19 | 42.33743 | 25.33347 | 23048 ft | 287 kts | 296° |
| 2026-05-04 19:19 | 42.34291 | 25.30747 | 23046 ft | 287 kts | 296° |
| 2026-05-04 19:19 | 42.34842 | 25.28137 | 23046 ft | 288 kts | 296° |
| 2026-05-04 19:20 | 42.35387 | 25.25543 | 23044 ft | 287 kts | 296° |
| 2026-05-04 19:20 | 42.35933 | 25.22945 | 23046 ft | 288 kts | 296° |
| 2026-05-04 19:20 | 42.36472 | 25.20375 | 23040 ft | 288 kts | 296° |
| 2026-05-04 19:20 | 42.37020 | 25.17763 | 23041 ft | 287 kts | 296° |
| 2026-05-04 19:21 | 42.37564 | 25.15162 | 23044 ft | 287 kts | 296° |
| 2026-05-04 19:21 | 42.38105 | 25.12576 | 23047 ft | 287 kts | 296° |
| 2026-05-04 19:21 | 42.38653 | 25.09952 | 23046 ft | 288 kts | 296° |
| 2026-05-04 19:21 | 42.39196 | 25.07350 | 23048 ft | 288 kts | 296° |
| 2026-05-04 19:22 | 42.39733 | 25.04768 | 23049 ft | 288 kts | 296° |
| 2026-05-04 19:22 | 42.40277 | 25.02154 | 23049 ft | 288 kts | 295° |
| 2026-05-04 19:22 | 42.40819 | 24.99546 | 23049 ft | 288 kts | 295° |
| 2026-05-04 19:22 | 42.41354 | 24.96972 | 23011 ft | 289 kts | 295° |
| 2026-05-04 19:23 | 42.41900 | 24.94338 | 22866 ft | 290 kts | 295° |
| 2026-05-04 19:23 | 42.42430 | 24.91759 | 22707 ft | 278 kts | 295° |
| 2026-05-04 19:23 | 42.42943 | 24.89279 | 22435 ft | 272 kts | 296° |
| 2026-05-04 19:23 | 42.43449 | 24.86839 | 22139 ft | 269 kts | 296° |
| 2026-05-04 19:24 | 42.43947 | 24.84423 | 21816 ft | 267 kts | 296° |
| 2026-05-04 19:24 | 42.44441 | 24.82027 | 21499 ft | 266 kts | 297° |
| 2026-05-04 19:24 | 42.44933 | 24.79636 | 21179 ft | 264 kts | 297° |
| 2026-05-04 19:24 | 42.45424 | 24.77248 | 20835 ft | 263 kts | 296° |
| 2026-05-04 19:25 | 42.45912 | 24.74872 | 20511 ft | 262 kts | 296° |
| 2026-05-04 19:25 | 42.46392 | 24.72527 | 20188 ft | 259 kts | 296° |
| 2026-05-04 19:25 | 42.46871 | 24.70190 | 19839 ft | 256 kts | 296° |
| 2026-05-04 19:25 | 42.47342 | 24.67889 | 19513 ft | 253 kts | 295° |
| 2026-05-04 19:26 | 42.47806 | 24.65617 | 19181 ft | 251 kts | 295° |
| 2026-05-04 19:26 | 42.48269 | 24.63350 | 18843 ft | 250 kts | 295° |
| 2026-05-04 19:26 | 42.48730 | 24.61087 | 18497 ft | 248 kts | 295° |
| 2026-05-04 19:26 | 42.49185 | 24.58857 | 18167 ft | 247 kts | 295° |
| 2026-05-04 19:27 | 42.49646 | 24.56593 | 17810 ft | 247 kts | 295° |
| 2026-05-04 19:27 | 42.50095 | 24.54381 | 17465 ft | 247 kts | 295° |
| 2026-05-04 19:27 | 42.50552 | 24.52130 | 17120 ft | 246 kts | 295° |
| 2026-05-04 19:27 | 42.51004 | 24.49901 | 16768 ft | 246 kts | 295° |
| 2026-05-04 19:28 | 42.51457 | 24.47667 | 16412 ft | 246 kts | 295° |
| 2026-05-04 19:28 | 42.51904 | 24.45455 | 16095 ft | 245 kts | 295° |
| 2026-05-04 19:28 | 42.52346 | 24.43263 | 15769 ft | 240 kts | 295° |
| 2026-05-04 19:28 | 42.52781 | 24.41108 | 15433 ft | 235 kts | 296° |
| 2026-05-04 19:29 | 42.53209 | 24.38988 | 15086 ft | 230 kts | 296° |
| 2026-05-04 19:29 | 42.53622 | 24.36939 | 14738 ft | 227 kts | 296° |
| 2026-05-04 19:29 | 42.54033 | 24.34901 | 14405 ft | 224 kts | 296° |
| 2026-05-04 19:29 | 42.54440 | 24.32879 | 14058 ft | 222 kts | 296° |
| 2026-05-04 19:30 | 42.54845 | 24.30861 | 13710 ft | 220 kts | 296° |
| 2026-05-04 19:30 | 42.55244 | 24.28876 | 13370 ft | 219 kts | 296° |
| 2026-05-04 19:30 | 42.55642 | 24.26892 | 13033 ft | 217 kts | 296° |
| 2026-05-04 19:30 | 42.56026 | 24.24962 | 12832 ft | 209 kts | 296° |
| 2026-05-04 19:31 | 42.56394 | 24.23084 | 12674 ft | 200 kts | 297° |
| 2026-05-04 19:31 | 42.56757 | 24.21295 | 12560 ft | 200 kts | 298° |
| 2026-05-04 19:31 | 42.57140 | 24.19422 | 12330 ft | 212 kts | 296° |
| 2026-05-04 19:31 | 42.57521 | 24.17463 | 12137 ft | 219 kts | 294° |
| 2026-05-04 19:32 | 42.57818 | 24.15412 | 11961 ft | 225 kts | 290° |
| 2026-05-04 19:32 | 42.58061 | 24.13298 | 11786 ft | 227 kts | 289° |
| 2026-05-04 19:32 | 42.58304 | 24.11152 | 11457 ft | 234 kts | 289° |
| 2026-05-04 19:32 | 42.58563 | 24.08944 | 11136 ft | 238 kts | 289° |
| 2026-05-04 19:33 | 42.58830 | 24.06748 | 10828 ft | 239 kts | 290° |
| 2026-05-04 19:33 | 42.59124 | 24.04528 | 10519 ft | 240 kts | 291° |
| 2026-05-04 19:33 | 42.59421 | 24.02311 | 10129 ft | 238 kts | 290° |
| 2026-05-04 19:33 | 42.59731 | 24.00155 | 9739 ft | 229 kts | 293° |
| 2026-05-04 19:34 | 42.60164 | 23.98103 | 9338 ft | 221 kts | 298° |
| 2026-05-04 19:34 | 42.60625 | 23.96150 | 8949 ft | 218 kts | 298° |
| 2026-05-04 19:34 | 42.61082 | 23.94190 | 8562 ft | 216 kts | 297° |
| 2026-05-04 19:34 | 42.61525 | 23.92281 | 8187 ft | 214 kts | 298° |
| 2026-05-04 19:35 | 42.61966 | 23.90367 | 7921 ft | 207 kts | 298° |
| 2026-05-04 19:35 | 42.62362 | 23.88577 | 7871 ft | 194 kts | 298° |
| 2026-05-04 19:35 | 42.62745 | 23.86876 | 7853 ft | 180 kts | 301° |
| 2026-05-04 19:35 | 42.63157 | 23.85312 | 7854 ft | 169 kts | 306° |
| 2026-05-04 19:36 | 42.63676 | 23.83965 | 7861 ft | 156 kts | 314° |
| 2026-05-04 19:36 | 42.64287 | 23.82795 | 7865 ft | 149 kts | 319° |
| 2026-05-04 19:36 | 42.64924 | 23.81713 | 7785 ft | 149 kts | 321° |
| 2026-05-04 19:36 | 42.65505 | 23.80486 | 7630 ft | 162 kts | 307° |
| 2026-05-04 19:37 | 42.65806 | 23.78931 | 7436 ft | 176 kts | 292° |
| 2026-05-04 19:37 | 42.65997 | 23.77285 | 7265 ft | 180 kts | 290° |
| 2026-05-04 19:37 | 42.66150 | 23.75565 | 7094 ft | 183 kts | 289° |
| 2026-05-04 19:37 | 42.66297 | 23.73868 | 6933 ft | 183 kts | 289° |
| 2026-05-04 19:38 | 42.66452 | 23.72142 | 6744 ft | 185 kts | 289° |
| 2026-05-04 19:38 | 42.66608 | 23.70423 | 6527 ft | 176 kts | 289° |
| 2026-05-04 19:38 | 42.66738 | 23.68845 | 6262 ft | 163 kts | 289° |
| 2026-05-04 19:38 | 42.66857 | 23.67345 | 5966 ft | 158 kts | 289° |
| 2026-05-04 19:39 | 42.66980 | 23.65880 | 5666 ft | 156 kts | 289° |
| 2026-05-04 19:39 | 42.67111 | 23.64417 | 5360 ft | 155 kts | 293° |
| 2026-05-04 19:39 | 42.67252 | 23.62980 | 5012 ft | 155 kts | 291° |
| 2026-05-04 19:39 | 42.67438 | 23.61584 | 4647 ft | 147 kts | 296° |
| 2026-05-04 19:40 | 42.67658 | 23.60239 | 4356 ft | 141 kts | 294° |
| 2026-05-04 19:40 | 42.67889 | 23.58912 | 3830 ft | 153 kts | 291° |
| 2026-05-04 19:40 | 42.68077 | 23.57618 | 3437 ft | 136 kts | 295° |
| 2026-05-04 19:40 | 42.68302 | 23.56423 | 2896 ft | 129 kts | 295° |
| 2026-05-04 19:41 | 42.68541 | 23.55317 | 2523 ft | 119 kts | 292° |
| 2026-05-04 19:41 | 42.68758 | 23.54262 | 2274 ft | 110 kts | 292° |
| 2026-05-04 19:41 | 42.68935 | 23.53276 | 2038 ft | 105 kts | 284° |
| 2026-05-04 19:41 | 42.69038 | 23.52271 | 1997 ft | 117 kts | 279° |
| 2026-05-04 19:42 | 42.69160 | 23.51100 | 2225 ft | 131 kts | 281° |
| 2026-05-04 19:42 | 42.69243 | 23.49782 | 2476 ft | 157 kts | 282° |
| 2026-05-04 19:42 | 42.69409 | 23.48251 | 3079 ft | 175 kts | 287° |
| 2026-05-04 19:42 | 42.69631 | 23.46573 | 3669 ft | 186 kts | 290° |
| 2026-05-04 19:43 | 42.69926 | 23.44748 | 3972 ft | 207 kts | 292° |
| 2026-05-04 19:43 | 42.70291 | 23.42775 | 4291 ft | 219 kts | 294° |
| 2026-05-04 19:43 | 42.70713 | 23.40809 | 4653 ft | 221 kts | 300° |
| 2026-05-04 19:43 | 42.71479 | 23.39005 | 4933 ft | 219 kts | 314° |
| 2026-05-04 19:44 | 42.72441 | 23.37400 | 5265 ft | 217 kts | 318° |
| 2026-05-04 19:44 | 42.73430 | 23.35869 | 5596 ft | 213 kts | 320° |
| 2026-05-04 19:44 | 42.74605 | 23.34696 | 5707 ft | 212 kts | 339° |
| 2026-05-04 19:44 | 42.76009 | 23.34363 | 5991 ft | 205 kts | 7° |
| 2026-05-04 19:45 | 42.77298 | 23.35166 | 6220 ft | 210 kts | 38° |
| 2026-05-04 19:45 | 42.78251 | 23.36733 | 6248 ft | 218 kts | 46° |
| 2026-05-04 19:45 | 42.79120 | 23.38369 | 6516 ft | 209 kts | 50° |
| 2026-05-04 19:45 | 42.80038 | 23.39869 | 6421 ft | 211 kts | 41° |
| 2026-05-04 19:46 | 42.81012 | 23.41388 | 6472 ft | 209 kts | 44° |
| 2026-05-04 19:46 | 42.81918 | 23.42917 | 6581 ft | 208 kts | 46° |
| 2026-05-04 19:46 | 42.82767 | 23.44493 | 6714 ft | 205 kts | 48° |
| 2026-05-04 19:46 | 42.83573 | 23.46101 | 6805 ft | 205 kts | 48° |
| 2026-05-04 19:47 | 42.84354 | 23.47702 | 6926 ft | 204 kts | 49° |
| 2026-05-04 19:47 | 42.85184 | 23.49254 | 6978 ft | 204 kts | 45° |
| 2026-05-04 19:47 | 42.85901 | 23.50959 | 6992 ft | 221 kts | 67° |
| 2026-05-04 19:47 | 42.85841 | 23.53121 | 7081 ft | 235 kts | 90° |
| 2026-05-04 19:48 | 42.85490 | 23.55307 | 7186 ft | 235 kts | 93° |
| 2026-05-04 19:48 | 42.85109 | 23.57462 | 7290 ft | 235 kts | 93° |
| 2026-05-04 19:48 | 42.84718 | 23.59620 | 7418 ft | 234 kts | 94° |
| 2026-05-04 19:48 | 42.84325 | 23.61763 | 7571 ft | 232 kts | 93° |
| 2026-05-04 19:49 | 42.83931 | 23.63876 | 7725 ft | 230 kts | 94° |
| 2026-05-04 19:49 | 42.83537 | 23.65976 | 7869 ft | 229 kts | 94° |
| 2026-05-04 19:49 | 42.83201 | 23.68092 | 7898 ft | 231 kts | 90° |
| 2026-05-04 19:49 | 42.82903 | 23.70266 | 7907 ft | 233 kts | 90° |
| 2026-05-04 19:50 | 42.82639 | 23.72433 | 7905 ft | 235 kts | 89° |
| 2026-05-04 19:50 | 42.82377 | 23.74634 | 7906 ft | 237 kts | 89° |
| 2026-05-04 19:50 | 42.82114 | 23.76847 | 7902 ft | 238 kts | 89° |
| 2026-05-04 19:50 | 42.81847 | 23.79059 | 7890 ft | 230 kts | 89° |
| 2026-05-04 19:51 | 42.81576 | 23.81134 | 7881 ft | 217 kts | 89° |
| 2026-05-04 19:51 | 42.81303 | 23.83112 | 7878 ft | 208 kts | 89° |
| 2026-05-04 19:51 | 42.81029 | 23.85004 | 7875 ft | 202 kts | 89° |
| 2026-05-04 19:51 | 42.80751 | 23.86873 | 7872 ft | 198 kts | 89° |
| 2026-05-04 19:52 | 42.80477 | 23.88678 | 7874 ft | 195 kts | 89° |
| 2026-05-04 19:52 | 42.80200 | 23.90486 | 7874 ft | 193 kts | 89° |
| 2026-05-04 19:52 | 42.79922 | 23.92263 | 7870 ft | 191 kts | 89° |
| 2026-05-04 19:52 | 42.79646 | 23.94020 | 7866 ft | 190 kts | 89° |
| 2026-05-04 19:53 | 42.79369 | 23.95769 | 7864 ft | 190 kts | 89° |
| 2026-05-04 19:53 | 42.79090 | 23.97524 | 7862 ft | 189 kts | 89° |
| 2026-05-04 19:53 | 42.78805 | 23.99281 | 7858 ft | 189 kts | 89° |
| 2026-05-04 19:53 | 42.78497 | 24.01003 | 7850 ft | 196 kts | 99° |
| 2026-05-04 19:54 | 42.77520 | 24.02448 | 7864 ft | 222 kts | 145° |
| 2026-05-04 19:54 | 42.76002 | 24.02813 | 7863 ft | 228 kts | 190° |
| 2026-05-04 19:54 | 42.74532 | 24.02100 | 7857 ft | 223 kts | 217° |
| 2026-05-04 19:54 | 42.73463 | 24.00692 | 7883 ft | 210 kts | 241° |
| 2026-05-04 19:55 | 42.72628 | 23.99081 | 7871 ft | 208 kts | 245° |
| 2026-05-04 19:55 | 42.71796 | 23.97452 | 7885 ft | 207 kts | 245° |
| 2026-05-04 19:55 | 42.71043 | 23.95807 | 7902 ft | 205 kts | 249° |
| 2026-05-04 19:55 | 42.70293 | 23.94166 | 7904 ft | 207 kts | 248° |
| 2026-05-04 19:56 | 42.69510 | 23.92507 | 7863 ft | 210 kts | 249° |
| 2026-05-04 19:56 | 42.68778 | 23.90771 | 7769 ft | 212 kts | 253° |
| 2026-05-04 19:56 | 42.68081 | 23.89005 | 7621 ft | 217 kts | 253° |
| 2026-05-04 19:56 | 42.67404 | 23.87139 | 7448 ft | 218 kts | 256° |
| 2026-05-04 19:57 | 42.66972 | 23.85242 | 7266 ft | 204 kts | 279° |
| 2026-05-04 19:57 | 42.67051 | 23.83356 | 7111 ft | 200 kts | 287° |
| 2026-05-04 19:57 | 42.67175 | 23.81461 | 6963 ft | 200 kts | 287° |
| 2026-05-04 19:57 | 42.67297 | 23.79585 | 6778 ft | 201 kts | 286° |
| 2026-05-04 19:58 | 42.67417 | 23.77693 | 6588 ft | 202 kts | 286° |
| 2026-05-04 19:58 | 42.67538 | 23.75777 | 6406 ft | 203 kts | 286° |
| 2026-05-04 19:58 | 42.67657 | 23.73879 | 6186 ft | 203 kts | 285° |
| 2026-05-04 19:58 | 42.67775 | 23.71983 | 5929 ft | 204 kts | 285° |
| 2026-05-04 19:59 | 42.67898 | 23.70064 | 5645 ft | 198 kts | 285° |
| 2026-05-04 19:59 | 42.68002 | 23.68319 | 5355 ft | 169 kts | 286° |
| 2026-05-04 19:59 | 42.68092 | 23.66855 | 5136 ft | 150 kts | 287° |
| 2026-05-04 19:59 | 42.68183 | 23.65486 | 4925 ft | 144 kts | 287° |
| 2026-05-04 20:00 | 42.68270 | 23.64135 | 4732 ft | 141 kts | 287° |
| 2026-05-04 20:00 | 42.68346 | 23.62872 | 4562 ft | 127 kts | 288° |
| 2026-05-04 20:00 | 42.68414 | 23.61725 | 4369 ft | 116 kts | 289° |
| 2026-05-04 20:00 | 42.68488 | 23.60623 | 4222 ft | 121 kts | 288° |
| 2026-05-04 20:01 | 42.68562 | 23.59468 | 4053 ft | 125 kts | 287° |
| 2026-05-04 20:01 | 42.68634 | 23.58282 | 3868 ft | 125 kts | 286° |
| 2026-05-04 20:01 | 42.68705 | 23.57123 | 3691 ft | 123 kts | 286° |
| 2026-05-04 20:01 | 42.68777 | 23.55958 | 3516 ft | 123 kts | 286° |
| 2026-05-04 20:02 | 42.68848 | 23.54811 | 3352 ft | 122 kts | 286° |
| 2026-05-04 20:02 | 42.68919 | 23.53652 | 3182 ft | 123 kts | 285° |
| 2026-05-04 20:02 | 42.68991 | 23.52494 | 3013 ft | 124 kts | 284° |
| 2026-05-04 20:02 | 42.69062 | 23.51324 | 2846 ft | 125 kts | 282° |
| 2026-05-04 20:03 | 42.69134 | 23.50141 | 2674 ft | 125 kts | 281° |
| 2026-05-04 20:03 | 42.69204 | 23.48980 | 2506 ft | 121 kts | 280° |
| 2026-05-04 20:03 | 42.69273 | 23.47855 | 2347 ft | 119 kts | 279° |
| 2026-05-04 20:03 | 42.69341 | 23.46738 | 2189 ft | 119 kts | 277° |
| 2026-05-04 20:04 | 42.69402 | 23.45607 | 2015 ft | 120 kts | 275° |
| 2026-05-04 20:04 | 42.69479 | 23.44479 | 1841 ft | 121 kts | 275° |
| 2026-05-04 20:04 | 42.69543 | 23.43399 | 1746 ft | 109 kts | 275° |
| 2026-05-04 20:04 | 42.69595 | 23.42484 | 1740 ft | 66 kts | 275° |
| 2026-05-04 20:05 | 42.69621 | 23.42084 | 1742 ft | 33 kts | 276° |
| 2026-05-04 20:05 | 42.69641 | 23.41794 | 1741 ft | 29 kts | 276° |
| 2026-05-04 20:05 | 42.69658 | 23.41524 | 1744 ft | 27 kts | 275° |
| 2026-05-04 20:05 | 42.69673 | 23.41264 | 1745 ft | 27 kts | 275° |
| 2026-05-04 20:06 | 42.69680 | 23.41004 | 1744 ft | 26 kts | 263° |
| 2026-05-04 20:06 | 42.69631 | 23.40789 | 1748 ft | 22 kts | 245° |
| 2026-05-04 20:06 | 42.69565 | 23.40600 | 1748 ft | 21 kts | 245° |
| 2026-05-04 20:06 | 42.69467 | 23.40469 | 1751 ft | 20 kts | 197° |
| 2026-05-04 20:07 | 42.69332 | 23.40413 | 1754 ft | 19 kts | 198° |
| 2026-05-04 20:07 | 42.69198 | 23.40356 | 1757 ft | 18 kts | 198° |
| 2026-05-04 20:07 | 42.69160 | 23.40255 | 1758 ft | 13 kts | 288° |
| 2026-05-04 20:07 | 42.69191 | 23.40118 | 1756 ft | 16 kts | 287° |
| 2026-05-04 20:08 | 42.69239 | 23.39971 | 1753 ft | 7 kts | 298° |
| 2026-05-04 20:08 | 42.69291 | 23.39961 | 1752 ft | 13 kts | 19° |
| 2026-05-04 20:08 | 42.69363 | 23.39988 | 1751 ft | 9 kts | 346° |
| 2026-05-04 20:08 | 42.69387 | 23.39924 | 1750 ft | 7 kts | 253° |
| 2026-05-04 20:09 | 42.69356 | 23.39901 | 1751 ft | 0 kts | 195° |